Time;durP1;ratioP1;P1;durP2;ratioP2;P2;SDS_P1;SDS_P2;PMS_P1;PMS_P2;Temp;Humidity;BMP_temperature;BMP_pressure;BME280_temperature;BME280_humidity;BME280_pressure;Samples;Min_cycle;Max_cycle;Signal;HPM_P1;HPM_P2
2021/07/17 00:02:12;;;;;;;9.73;7.23;;;;;;;20.05;71.76;99412.38;531075;1090;116896;-63
2021/07/17 00:12:19;;;;;;;9.03;6.90;;;;;;;19.86;71.89;99411.67;530358;1090;117276;-63
2021/07/17 00:22:25;;;;;;;8.20;6.67;;;;;;;19.56;72.45;99414.72;513342;1089;116788;-63
2021/07/17 00:32:32;;;;;;;13.40;7.90;;;;;;;19.31;72.79;99417.30;528759;1090;116248;-63
2021/07/17 00:42:41;;;;;;;10.10;7.33;;;;;;;19.16;73.47;99416.23;522062;1089;117986;-62
2021/07/17 00:52:47;;;;;;;10.08;6.55;;;;;;;19.18;73.67;99422.22;531197;1089;116502;-63
2021/07/17 01:03:00;;;;;;;8.63;6.57;;;;;;;19.00;73.65;99440.92;530456;1089;116608;-62
2021/07/17 01:13:07;;;;;;;11.58;7.45;;;;;;;18.90;74.18;99452.46;528793;1089;116973;-62
2021/07/17 01:23:14;;;;;;;9.27;7.00;;;;;;;18.89;74.39;99444.66;531110;1090;117067;-62
2021/07/17 01:33:21;;;;;;;9.77;7.00;;;;;;;18.81;74.32;99434.77;530499;1089;116916;-61
2021/07/17 01:43:27;;;;;;;8.53;7.63;;;;;;;18.72;74.51;99428.57;531289;1089;115966;-61
2021/07/17 01:53:33;;;;;;;8.63;7.00;;;;;;;18.58;74.37;99429.13;531348;1089;117909;-61
2021/07/17 02:03:45;;;;;;;8.40;7.10;;;;;;;18.34;74.77;99425.30;530497;1089;115706;-61
2021/07/17 02:13:53;;;;;;;11.90;8.73;;;;;;;18.22;75.26;99448.59;531177;1088;116330;-61
2021/07/17 02:24:00;;;;;;;13.50;9.67;;;;;;;18.28;75.58;99452.46;530335;1089;116220;-61
2021/07/17 02:34:06;;;;;;;10.33;8.07;;;;;;;18.27;75.72;99432.19;531249;1090;116323;-61
2021/07/17 02:44:13;;;;;;;12.80;9.00;;;;;;;18.16;76.04;99441.24;531240;1089;116296;-62
2021/07/17 02:54:19;;;;;;;11.30;9.70;;;;;;;18.14;75.96;99430.75;530510;1090;116452;-62
2021/07/17 03:04:25;;;;;;;13.37;9.03;;;;;;;18.07;76.11;99437.67;531208;1089;116664;-62
2021/07/17 03:14:32;;;;;;;9.70;7.87;;;;;;;18.43;76.50;99432.35;531171;1089;117560;-62
2021/07/17 03:24:39;;;;;;;10.90;9.53;;;;;;;19.68;76.41;99415.27;530499;1089;116835;-61
2021/07/17 03:34:45;;;;;;;11.23;9.83;;;;;;;19.97;73.71;99419.38;531159;1090;116487;-62
2021/07/17 03:44:51;;;;;;;11.87;9.03;;;;;;;19.95;73.52;99442.67;531189;1089;116264;-62
2021/07/17 03:54:58;;;;;;;12.87;10.53;;;;;;;20.53;73.31;99449.91;531274;1089;116257;-61
2021/07/17 04:05:05;;;;;;;17.47;15.50;;;;;;;20.91;73.31;99450.23;531172;1090;117870;-61
2021/07/17 04:15:12;;;;;;;16.60;14.83;;;;;;;23.50;72.65;99446.54;530509;1089;118551;-61
2021/07/17 04:25:19;;;;;;;15.43;13.53;;;;;;;28.22;65.63;99445.41;531295;1089;116793;-61
2021/07/17 04:35:26;;;;;;;15.67;14.10;;;;;;;31.94;57.80;99438.27;531123;1089;117314;-61
2021/07/17 04:45:34;;;;;;;13.57;12.27;;;;;;;34.45;52.39;99423.83;530527;1088;117453;-62
2021/07/17 04:55:41;;;;;;;11.50;10.30;;;;;;;37.02;47.54;99426.61;531099;1089;116358;-62
2021/07/17 05:05:48;;;;;;;13.03;11.58;;;;;;;39.86;43.22;99418.09;531277;1090;115927;-62
2021/07/17 05:15:55;;;;;;;11.80;9.30;;;;;;;42.93;38.15;99415.88;531284;1089;116825;-62
2021/07/17 05:26:01;;;;;;;8.05;7.30;;;;;;;44.80;34.09;99421.77;531283;1090;117763;-62
2021/07/17 05:36:07;;;;;;;9.60;8.35;;;;;;;45.98;31.50;99421.08;530477;1090;117312;-63
2021/07/17 05:46:14;;;;;;;9.75;7.80;;;;;;;47.77;28.46;99410.88;531206;1088;116490;-67
2021/07/17 05:56:21;;;;;;;6.53;5.93;;;;;;;48.02;26.53;99405.17;531213;1088;115754;-59
2021/07/17 06:06:28;;;;;;;54.83;14.85;;;;;;;49.49;24.65;99409.03;530556;1088;116556;-63
2021/07/17 06:16:34;;;;;;;8.43;6.77;;;;;;;48.32;24.05;99404.77;531272;1090;117662;-62
2021/07/17 06:26:40;;;;;;;8.13;7.28;;;;;;;48.89;22.73;99424.05;531324;1089;117330;-62
2021/07/17 06:36:47;;;;;;;11.03;8.07;;;;;;;50.16;22.57;99440.61;530384;1090;117859;-61
2021/07/17 06:46:53;;;;;;;8.90;8.08;;;;;;;51.28;21.07;99447.17;531280;1089;116537;-63
2021/07/17 06:56:59;;;;;;;;;;;;;;;49.63;20.31;99430.83;530518;1088;117154;-61
2021/07/17 07:07:05;;;;;;;6.98;6.30;;;;;;;50.80;20.33;99423.34;531475;1090;101694;-61
2021/07/17 07:17:12;;;;;;;8.08;6.38;;;;;;;52.23;18.73;99423.84;520599;1089;116032;-62
2021/07/17 07:27:18;;;;;;;7.60;6.78;;;;;;;51.82;18.06;99424.64;513624;1090;116061;-62
2021/07/17 07:37:27;;;;;;;5.37;4.97;;;;;;;42.26;22.34;99429.50;531171;1090;116339;-63
2021/07/17 07:47:33;;;;;;;6.90;6.30;;;;;;;40.39;25.37;99429.86;531233;1090;116141;-61
2021/07/17 07:57:40;;;;;;;7.13;6.08;;;;;;;41.57;25.01;99442.42;530511;1089;116604;-61
2021/07/17 08:07:46;;;;;;;7.90;7.00;;;;;;;38.12;27.68;99451.55;531175;1090;116463;-60
2021/07/17 08:17:53;;;;;;;5.88;5.18;;;;;;;35.24;30.62;99460.61;530936;1090;116163;-59
2021/07/17 08:28:00;;;;;;;7.77;6.70;;;;;;;33.18;33.72;99477.47;513097;1088;10002290;-60
2021/07/17 08:38:07;;;;;;;6.77;6.17;;;;;;;33.55;34.23;99465.98;531034;1088;119880;-61
2021/07/17 08:48:15;;;;;;;7.30;4.50;;;;;;;33.41;34.97;99468.23;524003;1088;117601;-62
2021/07/17 08:58:22;;;;;;;7.23;5.37;;;;;;;32.73;35.85;99469.19;512383;1089;116697;-62
2021/07/17 09:08:29;;;;;;;5.63;4.87;;;;;;;32.00;37.02;99461.71;528562;1089;116644;-61
2021/07/17 09:18:40;;;;;;;5.20;4.03;;;;;;;32.26;37.08;99435.83;530937;1089;116943;-61
2021/07/17 09:28:57;;;;;;;6.45;4.60;;;;;;;31.98;37.29;99425.84;531236;1090;118787;-62
2021/07/17 09:39:05;;;;;;;6.83;4.77;;;;;;;31.59;38.29;99415.61;530519;1088;116473;-62
2021/07/17 09:49:17;;;;;;;7.30;4.30;;;;;;;31.63;38.43;99413.23;531666;1088;116623;-62
2021/07/17 09:59:23;;;;;;;6.03;4.43;;;;;;;31.42;38.93;99396.56;531150;1089;117428;-63
2021/07/17 10:09:33;;;;;;;8.48;5.93;;;;;;;30.84;39.06;99394.55;530457;1089;116565;-61
2021/07/17 10:19:41;;;;;;;4.47;3.87;;;;;;;30.91;39.75;99397.14;530999;1089;118334;-62
2021/07/17 10:29:48;;;;;;;8.30;4.83;;;;;;;30.91;39.83;99399.84;531191;1089;115902;-61
2021/07/17 10:40:03;;;;;;;6.03;4.73;;;;;;;30.67;39.35;99383.61;531101;1089;116354;-62
2021/07/17 10:50:13;;;;;;;4.50;3.73;;;;;;;30.59;39.29;99370.38;531124;1090;116003;-62
2021/07/17 11:00:46;;;;;;;5.10;3.73;;;;;;;30.56;39.27;99373.57;530693;1088;116556;-61
2021/07/17 11:10:53;;;;;;;5.07;4.53;;;;;;;30.97;39.56;99376.39;531410;1089;116168;-62
2021/07/17 11:21:01;;;;;;;14.98;5.53;;;;;;;31.34;39.28;99367.09;530319;1089;116428;-61
2021/07/17 11:31:39;;;;;;;6.53;5.20;;;;;;;31.40;39.20;99358.84;531010;1088;115825;-61
2021/07/17 11:41:46;;;;;;;7.63;4.93;;;;;;;31.67;39.25;99363.67;531162;1089;116808;-62
2021/07/17 11:51:55;;;;;;;8.40;5.10;;;;;;;31.25;39.36;99355.81;530867;1088;116382;-62
2021/07/17 12:02:09;;;;;;;9.60;4.57;;;;;;;32.00;38.81;99351.23;531143;1089;116226;-62
2021/07/17 12:12:28;;;;;;;10.50;6.00;;;;;;;32.29;38.58;99337.55;530817;1090;116678;-62
2021/07/17 12:22:35;;;;;;;6.10;4.93;;;;;;;32.33;38.45;99326.20;531553;1088;117332;-63
2021/07/17 12:32:41;;;;;;;10.67;5.63;;;;;;;31.81;38.81;99306.39;531225;1089;116231;-63
2021/07/17 12:42:50;;;;;;;6.40;4.80;;;;;;;31.66;39.13;99291.48;530454;1089;117333;-63
2021/07/17 12:53:13;;;;;;;6.13;5.53;;;;;;;31.73;39.10;99297.55;531202;1089;116235;-65
2021/07/17 13:03:20;;;;;;;9.07;5.87;;;;;;;31.83;38.84;99299.66;521222;1089;116666;-62
2021/07/17 13:13:32;;;;;;;10.68;5.98;;;;;;;31.74;39.19;99279.39;531483;1090;116261;-60
2021/07/17 13:23:53;;;;;;;6.50;5.40;;;;;;;31.71;39.20;99277.98;531699;1089;116778;-59
2021/07/17 13:34:13;;;;;;;9.57;6.00;;;;;;;31.79;39.63;99262.37;531242;1089;116540;-60
2021/07/17 13:44:19;;;;;;;8.07;6.17;;;;;;;31.69;39.45;99252.18;531281;1089;116509;-60
2021/07/17 13:54:26;;;;;;;8.23;7.00;;;;;;;30.84;40.78;99241.95;530657;1088;117327;-60
2021/07/17 14:04:33;;;;;;;6.35;5.85;;;;;;;30.63;41.55;99227.97;531792;1089;116395;-61
2021/07/17 14:14:39;;;;;;;7.87;5.90;;;;;;;30.65;41.04;99223.19;531160;1089;116800;-59
2021/07/17 14:24:45;;;;;;;11.83;7.23;;;;;;;30.47;41.34;99199.74;530573;1089;116621;-59
2021/07/17 14:34:52;;;;;;;6.65;5.88;;;;;;;30.74;41.37;99200.05;531259;1089;165019;-59
2021/07/17 14:44:58;;;;;;;11.37;8.63;;;;;;;31.01;41.70;99206.77;530364;1088;115965;-59
2021/07/17 14:55:06;;;;;;;8.90;7.87;;;;;;;31.10;40.89;99205.31;531225;1089;117511;-59
2021/07/17 15:05:14;;;;;;;7.70;7.07;;;;;;;30.97;40.62;99205.63;531494;1088;116261;-59
2021/07/17 15:15:20;;;;;;;9.50;6.73;;;;;;;31.24;41.44;99200.45;530959;1090;116488;-60
2021/07/17 15:25:27;;;;;;;12.90;7.35;;;;;;;31.51;40.37;99183.52;531209;1088;116724;-60
2021/07/17 15:35:36;;;;;;;10.10;6.60;;;;;;;31.28;40.91;99187.20;531243;1090;117183;-59
2021/07/17 15:45:43;;;;;;;8.93;7.67;;;;;;;31.23;41.07;99184.41;530528;1088;116495;-59
2021/07/17 15:55:50;;;;;;;10.40;7.03;;;;;;;31.20;40.94;99177.55;531270;1089;115902;-59
2021/07/17 16:05:56;;;;;;;9.60;6.58;;;;;;;31.10;41.09;99177.38;530944;1090;116569;-59
2021/07/17 16:16:03;;;;;;;9.05;6.93;;;;;;;31.41;40.81;99181.47;531123;1089;116808;-60
2021/07/17 16:26:09;;;;;;;10.33;6.73;;;;;;;31.44;40.45;99169.28;531360;1089;117383;-59
2021/07/17 16:36:15;;;;;;;7.50;5.88;;;;;;;31.58;40.17;99157.05;530601;1089;116881;-60
2021/07/17 16:46:22;;;;;;;8.40;6.45;;;;;;;31.45;40.10;99177.19;531308;1090;116799;-59
2021/07/17 16:56:29;;;;;;;8.85;6.05;;;;;;;31.38;41.00;99162.96;513330;1090;10113202;-59
2021/07/17 17:06:35;;;;;;;8.03;6.33;;;;;;;31.37;40.92;99163.23;530670;1090;117512;-59
2021/07/17 17:16:42;;;;;;;9.10;6.90;;;;;;;31.06;41.59;99165.38;531690;1090;116532;-61
2021/07/17 17:26:47;;;;;;;;;;;;;;;30.72;41.79;99183.21;531287;1089;116924;-60
2021/07/17 17:36:53;;;;;;;7.13;6.53;;;;;;;30.41;42.24;99190.69;531173;1089;101897;-61
2021/07/17 17:47:02;;;;;;;7.78;6.93;;;;;;;30.08;43.26;99196.77;531159;1089;116262;-59
2021/07/17 17:57:12;;;;;;;9.37;8.53;;;;;;;29.83;44.25;99195.10;529996;1088;116317;-60
2021/07/17 18:07:19;;;;;;;9.53;7.63;;;;;;;29.32;44.77;99207.13;531288;1090;116689;-60
2021/07/17 18:17:24;;;;;;;;;;;;;;;28.82;46.18;99218.24;531801;1088;116459;-60
2021/07/17 18:27:30;;;;;;;10.60;7.10;;;;;;;28.42;47.17;99201.43;530905;1088;103126;-59
2021/07/17 18:37:40;;;;;;;11.25;7.45;;;;;;;27.98;48.04;99209.55;531302;1090;116935;-60
2021/07/17 18:47:46;;;;;;;9.00;8.07;;;;;;;27.62;49.18;99211.94;531273;1089;116686;-60
2021/07/17 18:57:53;;;;;;;10.13;7.47;;;;;;;26.67;51.38;99235.03;531419;1089;116518;-61
2021/07/17 19:07:59;;;;;;;11.37;7.33;;;;;;;25.54;53.19;99237.63;531808;1090;116248;-60
2021/07/17 19:18:06;;;;;;;7.67;6.50;;;;;;;24.96;54.41;99239.77;530453;1090;117059;-60
2021/07/17 19:28:12;;;;;;;8.90;8.10;;;;;;;24.73;55.50;99297.27;531258;1090;116074;-61
2021/07/17 19:38:19;;;;;;;9.63;7.63;;;;;;;24.72;55.59;99314.40;531280;1089;115940;-61
2021/07/17 19:48:25;;;;;;;9.47;6.53;;;;;;;24.72;56.35;99273.29;530411;1089;117032;-59
2021/07/17 19:58:32;;;;;;;9.77;8.77;;;;;;;24.55;57.04;99270.11;531399;1090;116378;-60
2021/07/17 20:08:38;;;;;;;14.63;8.37;;;;;;;24.26;57.71;99283.55;531787;1089;116292;-60
2021/07/17 20:18:44;;;;;;;6.67;6.00;;;;;;;23.88;58.64;99300.75;530627;1088;116516;-62
2021/07/17 20:28:51;;;;;;;8.10;6.90;;;;;;;23.76;58.91;99313.85;531237;1090;116687;-49
2021/07/17 20:38:57;;;;;;;10.10;6.43;;;;;;;23.69;59.50;99337.07;530516;1089;117327;-50
2021/07/17 20:49:04;;;;;;;8.67;7.60;;;;;;;23.29;60.75;99336.64;531455;1089;117328;-49
2021/07/17 20:59:11;;;;;;;6.73;6.13;;;;;;;23.06;61.84;99349.09;531656;1089;116469;-53
2021/07/17 21:09:17;;;;;;;6.88;6.03;;;;;;;22.97;63.34;99339.52;530981;1089;118142;-47
2021/07/17 21:19:24;;;;;;;7.07;6.13;;;;;;;22.60;63.82;99333.22;531261;1089;116992;-51
2021/07/17 21:29:30;;;;;;;8.50;6.00;;;;;;;22.38;64.77;99325.89;530970;1089;116738;-50
2021/07/17 21:39:37;;;;;;;9.77;5.57;;;;;;;22.20;65.39;99299.48;530674;1089;117197;-49
2021/07/17 21:49:44;;;;;;;8.48;6.70;;;;;;;22.11;66.26;99308.59;531545;1090;116462;-49
2021/07/17 21:59:54;;;;;;;8.60;7.23;;;;;;;22.11;66.84;99297.89;530851;1089;116685;-47
2021/07/17 22:10:00;;;;;;;8.43;6.93;;;;;;;22.05;67.12;99291.42;513483;1089;20001294;-49
2021/07/17 22:20:09;;;;;;;7.00;6.30;;;;;;;22.03;67.42;99279.25;531595;1089;116904;-50
2021/07/17 22:30:18;;;;;;;6.58;5.98;;;;;;;21.87;68.03;99281.06;530737;1089;116059;-60
2021/07/17 22:40:23;;;;;;;;;;;;;;;21.64;68.54;99286.37;531624;1088;117081;-60
2021/07/17 22:50:30;;;;;;;6.90;5.20;;;;;;;21.29;69.09;99289.45;531757;1088;103312;-60
2021/07/17 23:00:38;;;;;;;6.17;5.57;;;;;;;21.09;69.41;99275.71;531103;1089;116714;-59
2021/07/17 23:10:45;;;;;;;6.67;6.00;;;;;;;20.92;69.26;99283.78;531689;1090;116235;-59
2021/07/17 23:20:51;;;;;;;7.13;5.53;;;;;;;20.77;70.09;99293.49;531184;1090;117083;-60
2021/07/17 23:30:58;;;;;;;6.20;5.15;;;;;;;20.65;70.77;99307.20;531067;1089;117020;-59
2021/07/17 23:41:04;;;;;;;6.77;5.77;;;;;;;20.49;70.85;99302.73;531116;1089;116462;-59
2021/07/17 23:51:11;;;;;;;6.57;5.97;;;;;;;20.34;71.03;99291.92;530317;1089;116648;-59
